< < Back
Terminal Aerodrome Forecast


Current Version              Previous Versions:   1  2  3  4  5  6  7  8  9  

Terminal Aerodrome Forecast

830
FTUS42 KCAE 211700
TAFAGS
TAF
KAGS 211733Z 2118/2218 06008KT P6SM BKN060
     FM212100 06005KT P6SM OVC035
     FM220000 05006KT P6SM VCSH OVC015
     FM220400 04007KT 5SM -RA BR OVC006
     FM221300 03006KT 3SM -DZ BR BKN003 OVC010=

Latest METAR

155
SAUS70 KWBC 220100 RRV
MTRAGS
METAR KAGS 220253Z 05004KT 8SM FEW006 SCT024 OVC043 09/08 A3014 RMK AO2
RAE38 SLP207 P0004 60005 T00890078 58006


USA.gov is the U.S. government's official web portal to all federal, state and local government web resources and services.